createdAt,value
2019-03-22T00:01:13.294Z,25.75
2019-03-22T00:03:45.467Z,24.57
2019-03-22T00:06:17.215Z,24.27
2019-03-22T00:08:49.784Z,13.90
2019-03-22T00:11:21.563Z,21.80
2019-03-22T00:13:53.339Z,23.18
2019-03-22T00:16:24.994Z,26.52
2019-03-22T00:18:56.713Z,24.40
2019-03-22T00:21:28.502Z,25.62
2019-03-22T00:24:00.199Z,26.00
2019-03-22T00:26:32.630Z,25.90
2019-03-22T00:29:04.493Z,23.85
2019-03-22T00:31:36.156Z,18.20
2019-03-22T00:34:08.133Z,19.73
2019-03-22T00:36:39.889Z,26.12
2019-03-22T00:39:11.891Z,22.90
2019-03-22T00:41:43.637Z,21.87
2019-03-22T00:44:15.444Z,22.27
2019-03-22T00:46:47.170Z,24.77
2019-03-22T00:49:19.152Z,26.60
2019-03-22T00:51:50.918Z,11.33
2019-03-22T00:54:22.609Z,13.00
2019-03-22T00:56:54.594Z,11.50
2019-03-22T00:59:26.320Z,21.62
2019-03-22T01:01:58.051Z,27.02
2019-03-22T01:04:29.802Z,26.12
2019-03-22T01:07:01.499Z,24.30
2019-03-22T01:09:33.227Z,25.17
2019-03-22T01:12:05.233Z,24.85
2019-03-22T01:14:37.401Z,23.47
2019-03-22T01:17:09.099Z,20.35
2019-03-22T01:19:40.786Z,19.20
2019-03-22T01:22:12.485Z,23.60
2019-03-22T01:24:44.208Z,20.45
2019-03-22T01:27:15.929Z,24.55
2019-03-22T01:29:48.769Z,17.90
2019-03-22T01:32:20.529Z,20.05
2019-03-22T01:34:52.247Z,11.33
2019-03-22T01:37:24.011Z,19.87
2019-03-22T01:39:55.712Z,16.82
2019-03-22T01:42:27.865Z,14.83
2019-03-22T01:44:59.591Z,18.60
2019-03-22T01:47:31.280Z,13.40
2019-03-22T01:50:03.000Z,9.58
2019-03-22T01:52:34.735Z,16.75
2019-03-22T01:55:06.478Z,17.40
2019-03-22T01:57:38.698Z,15.70
2019-03-22T02:00:12.971Z,15.13
2019-03-22T02:02:45.321Z,18.20
2019-03-22T02:05:17.099Z,15.88
2019-03-22T02:07:48.867Z,13.40
2019-03-22T02:10:20.592Z,16.07
2019-03-22T02:12:52.717Z,13.65
2019-03-22T02:15:24.520Z,13.28
2019-03-22T02:17:56.279Z,12.73
2019-03-22T02:20:27.948Z,11.12
2019-03-22T02:22:59.782Z,12.23
2019-03-22T02:25:31.526Z,11.97
2019-03-22T02:28:04.456Z,7.90
2019-03-22T02:30:37.918Z,12.70
2019-03-22T02:33:10.181Z,5.55
2019-03-22T02:35:43.131Z,12.07
2019-03-22T02:38:14.869Z,12.88
2019-03-22T02:40:46.557Z,13.22
2019-03-22T02:43:18.274Z,12.33
2019-03-22T02:45:50.104Z,13.08
2019-03-22T02:48:21.868Z,12.65
2019-03-22T02:50:56.108Z,12.45
2019-03-22T02:53:30.593Z,12.65
2019-03-22T02:56:02.501Z,12.15
2019-03-22T02:58:34.382Z,9.65
2019-03-22T03:01:06.602Z,7.47
2019-03-22T03:03:39.242Z,11.57
2019-03-22T03:06:12.380Z,10.25
2019-03-22T03:08:45.123Z,11.88
2019-03-22T03:11:18.718Z,11.55
2019-03-22T03:13:50.876Z,11.70
2019-03-22T03:16:23.273Z,11.70
2019-03-22T03:18:56.135Z,11.22
2019-03-22T03:21:27.830Z,10.82
2019-03-22T03:23:59.563Z,11.10
2019-03-22T03:26:31.634Z,13.08
2019-03-22T03:29:03.347Z,11.65
2019-03-22T03:31:35.017Z,11.20
2019-03-22T03:34:06.829Z,6.33
2019-03-22T03:36:38.641Z,9.65
2019-03-22T03:39:10.759Z,7.65
2019-03-22T03:41:42.436Z,4.17
2019-03-22T03:44:14.166Z,7.25
2019-03-22T03:46:45.876Z,7.72
2019-03-22T03:49:17.615Z,7.15
2019-03-22T03:51:49.297Z,7.22
2019-03-22T03:54:21.746Z,7.37
2019-03-22T03:56:53.465Z,8.28
2019-03-22T03:59:25.179Z,8.18
2019-03-22T04:01:56.992Z,8.15
2019-03-22T04:04:28.778Z,7.35
2019-03-22T04:07:00.834Z,7.20
2019-03-22T04:09:33.323Z,4.08
2019-03-22T04:12:05.095Z,6.33
2019-03-22T04:14:36.825Z,6.10
2019-03-22T04:17:08.507Z,5.53
2019-03-22T04:19:40.626Z,4.20
2019-03-22T04:22:12.334Z,2.62
2019-03-22T04:24:45.211Z,4.90
2019-03-22T04:27:16.868Z,4.45
2019-03-22T04:29:48.633Z,4.65
2019-03-22T04:32:20.319Z,5.80
2019-03-22T04:34:52.039Z,5.20
2019-03-22T04:37:24.111Z,5.90
2019-03-22T04:39:55.791Z,4.97
2019-03-22T04:42:27.960Z,5.12
2019-03-22T04:44:59.713Z,5.00
2019-03-22T04:47:31.990Z,5.55
2019-03-22T04:50:04.293Z,5.45
2019-03-22T04:52:36.444Z,6.22
2019-03-22T04:55:08.194Z,5.60
2019-03-22T04:57:40.297Z,5.50
2019-03-22T05:00:12.512Z,7.12
2019-03-22T05:02:45.510Z,6.58
2019-03-22T05:05:18.418Z,7.20
2019-03-22T05:07:52.018Z,6.50
2019-03-22T05:10:26.367Z,6.67
2019-03-22T05:13:01.460Z,5.97
2019-03-22T05:15:34.532Z,5.92
2019-03-22T05:18:06.727Z,5.85
2019-03-22T05:20:40.290Z,5.80
2019-03-22T05:23:12.906Z,5.85
2019-03-22T05:25:45.762Z,6.65
2019-03-22T05:28:17.842Z,8.18
2019-03-22T05:31:22.832Z,6.53
2019-03-22T05:33:54.585Z,6.75
2019-03-22T05:36:26.318Z,8.08
2019-03-22T05:38:58.020Z,7.67
2019-03-22T05:41:29.722Z,8.43
2019-03-22T05:44:01.430Z,6.60
2019-03-22T05:46:33.246Z,6.58
2019-03-22T05:49:05.287Z,7.47
2019-03-22T05:51:37.054Z,6.65
2019-03-22T05:54:08.835Z,7.42
2019-03-22T05:56:40.572Z,6.72
2019-03-22T05:59:12.376Z,7.20
2019-03-22T06:01:48.256Z,8.43
2019-03-22T06:04:20.329Z,8.03
2019-03-22T06:06:52.190Z,7.92
2019-03-22T06:09:23.870Z,8.08
2019-03-22T06:11:55.700Z,8.53
2019-03-22T06:14:27.420Z,8.85
2019-03-22T06:16:59.195Z,8.70
2019-03-22T06:19:30.952Z,9.20
2019-03-22T06:22:02.668Z,8.20
2019-03-22T06:24:34.446Z,8.23
2019-03-22T06:27:06.187Z,8.70
2019-03-22T06:29:37.988Z,8.15
2019-03-22T06:32:09.782Z,8.65
2019-03-22T06:34:42.649Z,8.75
2019-03-22T06:37:14.515Z,8.60
2019-03-22T06:39:46.352Z,8.23
2019-03-22T06:42:18.053Z,7.60
2019-03-22T06:44:53.705Z,8.28
2019-03-22T06:47:25.622Z,8.08
2019-03-22T06:49:58.259Z,8.48
2019-03-22T06:52:30.013Z,7.97
2019-03-22T06:55:01.676Z,8.65
2019-03-22T06:57:33.846Z,8.90
2019-03-22T07:00:07.498Z,9.40
2019-03-22T07:02:39.756Z,9.50
2019-03-22T07:05:13.482Z,9.55
2019-03-22T07:07:45.475Z,9.00
2019-03-22T07:10:17.221Z,9.35
2019-03-22T07:12:51.069Z,8.90
2019-03-22T07:15:22.655Z,8.45
2019-03-22T07:17:54.429Z,9.33
2019-03-22T07:20:26.120Z,9.05
2019-03-22T07:22:57.890Z,8.95
2019-03-22T07:25:29.625Z,8.53
2019-03-22T07:28:01.747Z,9.40
2019-03-22T07:30:33.976Z,9.68
2019-03-22T07:33:05.657Z,9.48
2019-03-22T07:35:37.588Z,10.05
2019-03-22T07:38:09.398Z,15.70
2019-03-22T07:40:43.013Z,5.45
2019-03-22T07:43:14.940Z,8.13
2019-03-22T07:45:46.768Z,6.20
2019-03-22T07:48:18.525Z,7.53
2019-03-22T07:50:50.372Z,6.55
2019-03-22T07:53:22.149Z,8.25
2019-03-22T07:55:54.015Z,6.47
2019-03-22T07:58:25.605Z,3.90
2019-03-22T08:00:58.944Z,2.95
2019-03-22T08:03:31.046Z,5.58
2019-03-22T08:06:02.723Z,4.62
2019-03-22T08:08:34.821Z,5.90
2019-03-22T08:11:07.134Z,6.10
2019-03-22T08:13:39.893Z,5.90
2019-03-22T08:16:11.633Z,6.42
2019-03-22T08:18:43.440Z,6.78
2019-03-22T08:21:15.225Z,6.37
2019-03-22T08:23:47.345Z,5.75
2019-03-22T08:26:20.016Z,6.08
2019-03-22T08:28:52.246Z,5.45
2019-03-22T08:31:24.004Z,3.87
2019-03-22T08:33:56.212Z,7.10
2019-03-22T08:36:28.129Z,7.40
2019-03-22T08:39:00.584Z,7.08
2019-03-22T08:41:33.990Z,7.30
2019-03-22T08:44:06.162Z,7.20
2019-03-22T08:46:37.968Z,8.45
2019-03-22T08:49:10.046Z,7.87
2019-03-22T08:51:42.035Z,4.65
2019-03-22T08:54:13.746Z,8.53
2019-03-22T08:56:45.731Z,6.72
2019-03-22T08:59:17.781Z,6.70
2019-03-22T09:01:50.607Z,6.87
2019-03-22T09:04:22.423Z,6.12
2019-03-22T09:06:54.171Z,4.65
2019-03-22T09:09:26.255Z,4.47
2019-03-22T09:11:58.005Z,6.15
2019-03-22T09:14:29.787Z,4.87
2019-03-22T09:17:01.928Z,4.60
2019-03-22T09:19:33.666Z,3.10
2019-03-22T09:22:05.557Z,5.97
2019-03-22T09:24:39.407Z,11.25
2019-03-22T09:27:11.299Z,8.45
2019-03-22T09:29:43.077Z,9.73
2019-03-22T09:32:14.779Z,10.13
2019-03-22T09:34:47.369Z,10.30
2019-03-22T09:37:19.303Z,11.48
2019-03-22T09:39:51.126Z,12.82
2019-03-22T09:42:22.882Z,10.93
2019-03-22T09:44:54.638Z,11.90
2019-03-22T09:47:26.946Z,11.95
2019-03-22T09:49:58.693Z,10.78
2019-03-22T09:52:33.577Z,7.00
2019-03-22T09:55:13.444Z,10.40
2019-03-22T09:57:37.779Z,10.78
2019-03-22T10:00:10.039Z,9.60
2019-03-22T10:02:43.862Z,13.78
2019-03-22T10:05:21.039Z,5.50
2019-03-22T10:07:52.958Z,8.63
2019-03-22T10:10:24.899Z,8.25
2019-03-22T10:12:57.739Z,5.97
2019-03-22T10:15:29.537Z,8.10
2019-03-22T10:18:01.282Z,7.92
2019-03-22T10:20:33.557Z,8.20
2019-03-22T10:23:05.329Z,9.20
2019-03-22T10:25:37.383Z,8.98
2019-03-22T10:28:10.553Z,10.13
2019-03-22T10:30:42.398Z,8.90
2019-03-22T10:33:22.648Z,8.98
2019-03-22T10:35:48.170Z,9.28
2019-03-22T10:38:30.916Z,10.68
2019-03-22T10:40:54.130Z,5.80
2019-03-22T10:43:25.860Z,12.65
2019-03-22T10:45:57.589Z,12.85
2019-03-22T10:48:29.491Z,13.60
2019-03-22T10:51:01.262Z,13.70
2019-03-22T10:53:32.959Z,15.80
2019-03-22T10:56:04.818Z,14.65
2019-03-22T10:58:36.608Z,14.60
2019-03-22T11:01:08.978Z,17.17
2019-03-22T11:03:40.902Z,15.13
2019-03-22T11:06:13.956Z,12.70
2019-03-22T11:08:46.029Z,20.37
2019-03-22T11:11:17.829Z,23.42
2019-03-22T11:13:50.290Z,23.83
2019-03-22T11:16:28.582Z,22.77
2019-03-22T11:19:00.888Z,14.45
2019-03-22T11:21:33.283Z,23.60
2019-03-22T11:24:05.112Z,24.47
2019-03-22T11:26:36.824Z,23.92
2019-03-22T11:29:09.042Z,27.37
2019-03-22T11:31:40.810Z,27.93
2019-03-22T11:34:12.503Z,21.42
2019-03-22T11:36:44.422Z,28.38
2019-03-22T11:39:16.247Z,32.28
2019-03-22T11:41:48.597Z,31.80
2019-03-22T11:44:21.208Z,32.48
2019-03-22T11:46:53.102Z,35.25
2019-03-22T11:49:25.569Z,36.60
2019-03-22T11:51:58.462Z,33.60
2019-03-22T11:54:30.594Z,34.30
2019-03-22T11:57:02.423Z,35.05
2019-03-22T11:59:34.168Z,28.98
2019-03-22T12:02:06.505Z,28.70
2019-03-22T12:04:38.912Z,31.82
2019-03-22T12:07:11.678Z,36.05
2019-03-22T12:09:45.303Z,35.05
2019-03-22T12:12:17.299Z,36.80
2019-03-22T12:14:49.538Z,35.28
2019-03-22T12:17:21.451Z,36.28
2019-03-22T12:19:53.827Z,35.35
2019-03-22T12:22:25.714Z,37.38
2019-03-22T12:24:57.572Z,12.43
2019-03-22T12:27:36.446Z,22.85
2019-03-22T12:30:03.319Z,18.17
2019-03-22T12:32:35.213Z,35.55
2019-03-22T12:35:08.480Z,25.32
2019-03-22T12:37:40.385Z,34.25
2019-03-22T12:40:12.970Z,27.37
2019-03-22T12:42:45.624Z,33.70
2019-03-22T12:45:20.389Z,33.78
2019-03-22T12:47:52.319Z,34.65
2019-03-22T12:50:25.697Z,38.33
2019-03-22T12:52:57.882Z,32.40
2019-03-22T12:55:29.588Z,39.90
2019-03-22T12:58:01.483Z,37.65
2019-03-22T13:00:33.393Z,38.08
2019-03-22T13:03:05.150Z,30.92
2019-03-22T13:05:37.490Z,38.60
2019-03-22T13:08:10.394Z,39.58
2019-03-22T13:10:42.312Z,39.10
2019-03-22T13:13:14.154Z,39.92
2019-03-22T13:15:45.912Z,37.48
2019-03-22T13:18:17.700Z,38.88
2019-03-22T13:20:51.094Z,22.00
2019-03-22T13:23:23.632Z,41.35
2019-03-22T13:25:55.404Z,38.48
2019-03-22T13:28:27.138Z,38.60
2019-03-22T13:30:58.828Z,39.23
2019-03-22T13:33:30.574Z,39.53
2019-03-22T13:36:02.896Z,39.98
2019-03-22T13:38:34.768Z,37.38
2019-03-22T13:41:06.614Z,38.73
2019-03-22T13:43:38.489Z,39.50
2019-03-22T13:46:10.835Z,36.58
2019-03-22T13:48:42.636Z,34.18
2019-03-22T13:51:14.622Z,22.25
2019-03-22T13:53:46.449Z,39.80
2019-03-22T13:56:18.472Z,38.50
2019-03-22T13:58:51.544Z,38.78
2019-03-22T14:01:24.869Z,39.78
2019-03-22T14:03:56.790Z,38.83
2019-03-22T14:06:29.058Z,42.55
2019-03-22T14:09:01.766Z,40.83
2019-03-22T14:11:34.122Z,38.90
2019-03-22T14:14:06.402Z,45.60
2019-03-22T14:16:38.241Z,41.28
2019-03-22T14:19:10.007Z,41.30
2019-03-22T14:21:41.706Z,42.35
2019-03-22T14:24:13.461Z,30.50
2019-03-22T14:26:45.498Z,41.25
2019-03-22T14:29:17.328Z,39.27
2019-03-22T14:31:49.159Z,40.45
2019-03-22T14:34:21.007Z,41.95
2019-03-22T14:36:52.802Z,38.80
2019-03-22T14:39:24.631Z,41.73
2019-03-22T14:41:56.677Z,42.50
2019-03-22T14:44:28.502Z,40.43
2019-03-22T14:47:00.983Z,40.45
2019-03-22T14:49:32.713Z,40.80
2019-03-22T14:52:04.416Z,40.83
2019-03-22T14:54:36.555Z,38.70
2019-03-22T14:57:08.345Z,39.25
2019-03-22T14:59:40.132Z,39.15
2019-03-22T15:02:12.145Z,38.25
2019-03-22T15:04:43.973Z,38.70
2019-03-22T15:07:20.036Z,39.53
2019-03-22T15:09:49.676Z,33.45
2019-03-22T15:12:21.363Z,37.85
2019-03-22T15:15:12.075Z,39.23
2019-03-22T15:18:20.945Z,39.85
2019-03-22T15:21:17.732Z,35.70
2019-03-22T15:24:08.311Z,36.50
2019-03-22T15:26:57.864Z,36.93
2019-03-22T15:29:56.717Z,33.00
2019-03-22T15:32:53.663Z,33.38
2019-03-22T15:35:53.318Z,32.20
2019-03-22T15:38:44.228Z,37.67
2019-03-22T15:41:16.011Z,39.70
2019-03-22T15:43:47.898Z,38.00
2019-03-22T15:46:19.620Z,35.45
2019-03-22T15:48:51.450Z,35.70
2019-03-22T15:51:23.312Z,32.17
2019-03-22T15:53:55.100Z,31.10
2019-03-22T15:56:26.826Z,33.88
2019-03-22T15:58:58.593Z,30.57
2019-03-22T16:01:30.370Z,29.52
2019-03-22T16:04:02.131Z,29.30
2019-03-22T16:06:33.872Z,28.57
2019-03-22T16:09:07.892Z,27.22
2019-03-22T16:11:39.762Z,27.77
2019-03-22T16:14:11.889Z,26.97
2019-03-22T16:16:44.041Z,27.58
2019-03-22T16:19:15.737Z,28.15
2019-03-22T16:21:47.569Z,26.95
2019-03-22T16:24:19.228Z,26.48
2019-03-22T16:26:50.914Z,28.50
2019-03-22T16:29:22.577Z,26.75
2019-03-22T16:31:54.357Z,25.75
2019-03-22T16:34:26.093Z,27.37
2019-03-22T16:36:57.902Z,27.87
2019-03-22T16:39:29.658Z,27.87
2019-03-22T16:42:01.467Z,27.27
2019-03-22T16:44:33.252Z,29.07
2019-03-22T16:47:05.428Z,26.37
2019-03-22T16:49:37.220Z,27.90
2019-03-22T16:52:09.013Z,32.25
2019-03-22T16:54:40.792Z,27.07
2019-03-22T16:57:12.690Z,27.55
2019-03-22T16:59:44.976Z,25.77
2019-03-22T17:02:16.710Z,26.57
2019-03-22T17:04:48.463Z,25.70
2019-03-22T17:07:20.237Z,25.55
2019-03-22T17:09:51.967Z,26.33
2019-03-22T17:12:23.729Z,25.72
2019-03-22T17:14:55.453Z,30.48
2019-03-22T17:17:27.602Z,29.87
2019-03-22T17:19:59.385Z,32.38
2019-03-22T17:22:32.412Z,28.00
2019-03-22T17:25:04.228Z,30.88
2019-03-22T17:27:35.946Z,30.55
2019-03-22T17:30:09.169Z,26.95
2019-03-22T17:32:41.302Z,25.88
2019-03-22T17:35:13.154Z,25.10
2019-03-22T17:37:45.466Z,25.97
2019-03-22T17:40:17.469Z,26.15
2019-03-22T17:42:49.198Z,26.87
2019-03-22T17:45:21.023Z,27.58
2019-03-22T17:47:53.160Z,29.37
2019-03-22T17:50:25.092Z,29.60
2019-03-22T17:52:57.280Z,30.55
2019-03-22T17:55:29.191Z,29.10
2019-03-22T17:58:00.949Z,27.70
2019-03-22T18:00:32.813Z,27.52
2019-03-22T18:03:05.009Z,35.20
2019-03-22T18:05:36.698Z,34.60
2019-03-22T18:08:08.589Z,27.87
2019-03-22T18:10:40.357Z,27.35
2019-03-22T18:13:12.146Z,26.25
2019-03-22T18:15:43.846Z,26.10
2019-03-22T18:18:15.559Z,26.95
2019-03-22T18:20:47.625Z,26.30
2019-03-22T18:23:19.407Z,27.73
2019-03-22T18:25:51.579Z,28.23
2019-03-22T18:28:24.384Z,27.02
2019-03-22T18:30:56.187Z,26.87
2019-03-22T18:33:28.677Z,28.38
2019-03-22T18:36:00.487Z,32.25
2019-03-22T18:38:32.698Z,32.20
2019-03-22T18:41:04.432Z,28.45
2019-03-22T18:43:36.518Z,29.30
2019-03-22T18:46:08.336Z,27.00
2019-03-22T18:48:40.455Z,29.57
2019-03-22T18:51:12.255Z,33.70
2019-03-22T18:53:43.998Z,38.48
2019-03-22T18:56:15.760Z,48.45
2019-03-22T18:58:48.166Z,50.83
2019-03-22T19:01:19.800Z,31.97
2019-03-22T19:03:51.510Z,28.25
2019-03-22T19:06:23.638Z,27.30
2019-03-22T19:08:55.444Z,27.70
2019-03-22T19:11:27.251Z,29.70
2019-03-22T19:13:59.221Z,35.28
2019-03-22T19:16:31.293Z,28.07
2019-03-22T19:19:03.001Z,28.50
2019-03-22T19:21:34.732Z,28.80
2019-03-22T19:24:07.624Z,26.70
2019-03-22T19:26:39.389Z,28.25
2019-03-22T19:29:11.070Z,29.65
2019-03-22T19:31:43.283Z,29.75
2019-03-22T19:34:16.061Z,38.30
2019-03-22T19:36:47.810Z,30.17
2019-03-22T19:39:19.492Z,28.60
2019-03-22T19:41:51.179Z,28.38
2019-03-22T19:44:22.946Z,29.18
2019-03-22T19:46:54.652Z,32.75
2019-03-22T19:49:26.379Z,28.80
2019-03-22T19:51:58.142Z,29.07
2019-03-22T19:54:30.207Z,29.95
2019-03-22T19:57:01.885Z,28.12
2019-03-22T19:59:33.693Z,29.40
2019-03-22T20:02:05.412Z,30.23
2019-03-22T20:04:37.131Z,28.87
2019-03-22T20:07:08.887Z,30.95
2019-03-22T20:09:40.579Z,30.80
2019-03-22T20:12:12.751Z,31.48
2019-03-22T20:14:44.839Z,31.73
2019-03-22T20:17:16.573Z,32.95
2019-03-22T20:19:48.250Z,33.15
2019-03-22T20:22:19.955Z,31.82
2019-03-22T20:24:51.806Z,30.68
2019-03-22T20:27:23.589Z,30.97
2019-03-22T20:29:55.928Z,32.98
2019-03-22T20:32:27.720Z,32.98
2019-03-22T20:34:59.549Z,33.88
2019-03-22T20:37:31.675Z,34.92
2019-03-22T20:40:03.469Z,33.85
2019-03-22T20:42:35.315Z,35.23
2019-03-22T20:45:08.661Z,34.33
2019-03-22T20:47:40.851Z,35.65
2019-03-22T20:50:12.882Z,34.35
2019-03-22T20:52:44.714Z,36.63
2019-03-22T20:55:16.534Z,34.43
2019-03-22T20:57:49.427Z,35.73
2019-03-22T21:00:21.513Z,37.05
2019-03-22T21:02:53.987Z,35.88
2019-03-22T21:05:27.087Z,37.55
2019-03-22T21:07:59.351Z,38.95
2019-03-22T21:10:31.311Z,38.65
2019-03-22T21:13:03.660Z,39.05
2019-03-22T21:15:35.386Z,39.75
2019-03-22T21:18:07.131Z,41.13
2019-03-22T21:20:38.875Z,39.67
2019-03-22T21:23:11.219Z,39.55
2019-03-22T21:25:42.953Z,38.98
2019-03-22T21:28:14.753Z,39.27
2019-03-22T21:30:46.590Z,39.05
2019-03-22T21:33:18.319Z,38.33
2019-03-22T21:35:50.114Z,39.20
2019-03-22T21:38:21.879Z,39.23
2019-03-22T21:40:53.604Z,39.35
2019-03-22T21:43:25.815Z,39.60
2019-03-22T21:45:57.955Z,41.13
2019-03-22T21:48:30.434Z,39.75
2019-03-22T21:51:02.182Z,40.67
2019-03-22T21:53:34.015Z,42.58
2019-03-22T21:56:05.781Z,40.40
2019-03-22T21:58:37.494Z,41.98
2019-03-22T22:01:09.511Z,41.33
2019-03-22T22:03:41.254Z,42.58
2019-03-22T22:06:15.496Z,43.05
2019-03-22T22:08:47.235Z,43.20
2019-03-22T22:11:19.010Z,43.25
2019-03-22T22:13:50.727Z,45.03
2019-03-22T22:16:22.491Z,44.40
2019-03-22T22:18:54.162Z,44.58
2019-03-22T22:21:26.436Z,44.83
2019-03-22T22:23:58.939Z,45.15
2019-03-22T22:26:31.551Z,44.58
2019-03-22T22:29:03.708Z,44.95
2019-03-22T22:31:35.836Z,44.77
2019-03-22T22:34:07.565Z,47.15
2019-03-22T22:36:39.286Z,46.50
2019-03-22T22:39:11.412Z,48.63
2019-03-22T22:41:43.199Z,46.68
2019-03-22T22:44:14.976Z,47.10
2019-03-22T22:46:46.658Z,49.03
2019-03-22T22:49:18.561Z,47.60
2019-03-22T22:51:50.388Z,45.78
2019-03-22T22:54:22.742Z,48.68
2019-03-22T22:56:54.512Z,49.90
2019-03-22T22:59:26.735Z,48.23
2019-03-22T23:01:58.535Z,48.15
2019-03-22T23:04:32.210Z,45.33
2019-03-22T23:07:04.630Z,47.75
2019-03-22T23:09:36.392Z,47.13
2019-03-22T23:12:08.543Z,46.75
2019-03-22T23:14:40.318Z,48.60
2019-03-22T23:17:12.182Z,49.00
2019-03-22T23:19:43.880Z,48.28
2019-03-22T23:22:15.597Z,49.03
2019-03-22T23:24:48.479Z,49.65
2019-03-22T23:27:20.312Z,49.13
2019-03-22T23:29:52.323Z,47.73
2019-03-22T23:32:24.644Z,46.77
2019-03-22T23:34:59.243Z,49.58
2019-03-22T23:37:30.205Z,48.30
2019-03-22T23:40:01.961Z,43.98
2019-03-22T23:42:34.226Z,48.68
2019-03-22T23:45:06.378Z,45.45
2019-03-22T23:48:25.179Z,46.05
2019-03-22T23:50:57.024Z,46.20
2019-03-22T23:53:28.770Z,41.95
2019-03-22T23:56:00.937Z,43.55
2019-03-22T23:58:33.012Z,42.10
